sensor_id;sensor_type;location;lat;lon;timestamp;pressure;altitude;pressure_sealevel;temperature
31528;BMP280;10206;48.012;10.030;2023-07-13T00:01:52;94822.50;;;21.69
31528;BMP280;10206;48.012;10.030;2023-07-13T00:04:19;94834.03;;;21.81
31528;BMP280;10206;48.012;10.030;2023-07-13T00:06:47;94833.63;;;21.69
31528;BMP280;10206;48.012;10.030;2023-07-13T00:09:14;94821.56;;;21.82
31528;BMP280;10206;48.012;10.030;2023-07-13T00:11:41;94831.16;;;21.79
31528;BMP280;10206;48.012;10.030;2023-07-13T00:14:08;94848.50;;;21.78
31528;BMP280;10206;48.012;10.030;2023-07-13T00:16:36;94854.69;;;21.76
31528;BMP280;10206;48.012;10.030;2023-07-13T00:19:03;94839.59;;;21.81
31528;BMP280;10206;48.012;10.030;2023-07-13T00:21:29;94847.50;;;21.69
31528;BMP280;10206;48.012;10.030;2023-07-13T00:23:55;94846.94;;;21.73
31528;BMP280;10206;48.012;10.030;2023-07-13T00:26:21;94858.53;;;21.67
31528;BMP280;10206;48.012;10.030;2023-07-13T00:28:47;94854.13;;;21.60
31528;BMP280;10206;48.012;10.030;2023-07-13T00:31:14;94863.88;;;21.81
31528;BMP280;10206;48.012;10.030;2023-07-13T00:33:41;94857.13;;;21.66
31528;BMP280;10206;48.012;10.030;2023-07-13T00:36:09;94855.16;;;21.49
31528;BMP280;10206;48.012;10.030;2023-07-13T00:38:36;94856.88;;;21.58
31528;BMP280;10206;48.012;10.030;2023-07-13T00:41:03;94859.53;;;21.56
31528;BMP280;10206;48.012;10.030;2023-07-13T00:43:30;94860.34;;;21.59
31528;BMP280;10206;48.012;10.030;2023-07-13T00:46:11;94858.31;;;21.59
31528;BMP280;10206;48.012;10.030;2023-07-13T00:48:38;94847.53;;;21.49
31528;BMP280;10206;48.012;10.030;2023-07-13T00:51:05;94841.34;;;21.51
31528;BMP280;10206;48.012;10.030;2023-07-13T00:53:33;94842.63;;;21.48
31528;BMP280;10206;48.012;10.030;2023-07-13T00:56:00;94838.91;;;21.61
31528;BMP280;10206;48.012;10.030;2023-07-13T00:58:27;94843.97;;;21.67
31528;BMP280;10206;48.012;10.030;2023-07-13T01:00:54;94833.94;;;21.79
31528;BMP280;10206;48.012;10.030;2023-07-13T01:03:20;94836.53;;;21.73
31528;BMP280;10206;48.012;10.030;2023-07-13T01:05:49;94837.84;;;21.70
31528;BMP280;10206;48.012;10.030;2023-07-13T01:08:16;94828.91;;;21.74
31528;BMP280;10206;48.012;10.030;2023-07-13T01:10:54;94832.69;;;21.82
31528;BMP280;10206;48.012;10.030;2023-07-13T01:13:21;94838.94;;;21.83
31528;BMP280;10206;48.012;10.030;2023-07-13T01:15:48;94850.53;;;21.56
31528;BMP280;10206;48.012;10.030;2023-07-13T01:18:20;94854.28;;;21.44
31528;BMP280;10206;48.012;10.030;2023-07-13T01:21:00;94857.16;;;21.46
31528;BMP280;10206;48.012;10.030;2023-07-13T01:23:28;94852.59;;;21.55
31528;BMP280;10206;48.012;10.030;2023-07-13T01:25:55;94855.94;;;21.52
31528;BMP280;10206;48.012;10.030;2023-07-13T01:28:23;94863.28;;;21.43
31528;BMP280;10206;48.012;10.030;2023-07-13T01:30:53;94854.94;;;21.63
31528;BMP280;10206;48.012;10.030;2023-07-13T01:33:19;94864.06;;;21.65
31528;BMP280;10206;48.012;10.030;2023-07-13T01:35:46;94849.69;;;21.51
31528;BMP280;10206;48.012;10.030;2023-07-13T01:38:16;94854.66;;;21.55
31528;BMP280;10206;48.012;10.030;2023-07-13T01:40:42;94847.19;;;21.59
31528;BMP280;10206;48.012;10.030;2023-07-13T01:43:09;94845.25;;;21.44
31528;BMP280;10206;48.012;10.030;2023-07-13T01:45:36;94840.81;;;21.57
31528;BMP280;10206;48.012;10.030;2023-07-13T01:48:02;94844.72;;;21.48
31528;BMP280;10206;48.012;10.030;2023-07-13T01:50:28;94841.53;;;21.57
31528;BMP280;10206;48.012;10.030;2023-07-13T01:52:54;94849.38;;;21.63
31528;BMP280;10206;48.012;10.030;2023-07-13T01:55:21;94852.78;;;21.61
31528;BMP280;10206;48.012;10.030;2023-07-13T01:57:48;94851.22;;;21.56
31528;BMP280;10206;48.012;10.030;2023-07-13T02:00:15;94846.53;;;21.41
31528;BMP280;10206;48.012;10.030;2023-07-13T02:02:41;94845.34;;;21.46
31528;BMP280;10206;48.012;10.030;2023-07-13T02:05:08;94861.56;;;21.54
31528;BMP280;10206;48.012;10.030;2023-07-13T02:07:34;94864.41;;;21.56
31528;BMP280;10206;48.012;10.030;2023-07-13T02:10:00;94869.66;;;21.67
31528;BMP280;10206;48.012;10.030;2023-07-13T02:12:26;94863.25;;;21.63
31528;BMP280;10206;48.012;10.030;2023-07-13T02:14:52;94858.94;;;21.58
31528;BMP280;10206;48.012;10.030;2023-07-13T02:17:18;94852.75;;;21.59
31528;BMP280;10206;48.012;10.030;2023-07-13T02:19:44;94858.50;;;21.45
31528;BMP280;10206;48.012;10.030;2023-07-13T02:22:11;94859.91;;;21.66
31528;BMP280;10206;48.012;10.030;2023-07-13T02:24:37;94864.13;;;21.48
31528;BMP280;10206;48.012;10.030;2023-07-13T02:27:04;94863.75;;;21.57
31528;BMP280;10206;48.012;10.030;2023-07-13T02:29:30;94853.38;;;21.58
31528;BMP280;10206;48.012;10.030;2023-07-13T02:31:56;94859.81;;;21.42
31528;BMP280;10206;48.012;10.030;2023-07-13T02:34:23;94857.00;;;21.62
31528;BMP280;10206;48.012;10.030;2023-07-13T02:36:49;94852.47;;;21.51
31528;BMP280;10206;48.012;10.030;2023-07-13T02:39:15;94856.44;;;21.46
31528;BMP280;10206;48.012;10.030;2023-07-13T02:41:41;94855.81;;;21.48
31528;BMP280;10206;48.012;10.030;2023-07-13T02:44:07;94851.91;;;21.35
31528;BMP280;10206;48.012;10.030;2023-07-13T02:46:35;94844.34;;;21.37
31528;BMP280;10206;48.012;10.030;2023-07-13T02:49:02;94838.88;;;21.20
31528;BMP280;10206;48.012;10.030;2023-07-13T02:51:29;94850.91;;;21.07
31528;BMP280;10206;48.012;10.030;2023-07-13T02:53:55;94851.03;;;21.11
31528;BMP280;10206;48.012;10.030;2023-07-13T02:56:25;94855.19;;;20.92
31528;BMP280;10206;48.012;10.030;2023-07-13T02:58:52;94864.66;;;21.05
31528;BMP280;10206;48.012;10.030;2023-07-13T03:01:18;94862.25;;;20.95
31528;BMP280;10206;48.012;10.030;2023-07-13T03:03:48;94868.28;;;20.90
31528;BMP280;10206;48.012;10.030;2023-07-13T03:06:15;94865.81;;;20.98
31528;BMP280;10206;48.012;10.030;2023-07-13T03:08:42;94865.19;;;20.99
31528;BMP280;10206;48.012;10.030;2023-07-13T03:11:13;94861.19;;;21.04
31528;BMP280;10206;48.012;10.030;2023-07-13T03:13:40;94868.16;;;21.25
31528;BMP280;10206;48.012;10.030;2023-07-13T03:16:08;94867.91;;;21.17
31528;BMP280;10206;48.012;10.030;2023-07-13T03:18:35;94866.59;;;21.20
31528;BMP280;10206;48.012;10.030;2023-07-13T03:21:01;94878.28;;;21.16
31528;BMP280;10206;48.012;10.030;2023-07-13T03:23:27;94880.91;;;21.32
31528;BMP280;10206;48.012;10.030;2023-07-13T03:26:08;94882.44;;;21.35
31528;BMP280;10206;48.012;10.030;2023-07-13T03:28:34;94877.56;;;21.35
31528;BMP280;10206;48.012;10.030;2023-07-13T03:31:02;94881.63;;;21.52
31528;BMP280;10206;48.012;10.030;2023-07-13T03:33:29;94893.72;;;21.41
31528;BMP280;10206;48.012;10.030;2023-07-13T03:35:56;94888.75;;;21.37
31528;BMP280;10206;48.012;10.030;2023-07-13T03:38:22;94894.03;;;21.49
31528;BMP280;10206;48.012;10.030;2023-07-13T03:40:48;94897.84;;;21.60
31528;BMP280;10206;48.012;10.030;2023-07-13T03:43:15;94894.03;;;21.49
31528;BMP280;10206;48.012;10.030;2023-07-13T03:45:41;94892.38;;;21.42
31528;BMP280;10206;48.012;10.030;2023-07-13T03:48:07;94892.25;;;21.38
31528;BMP280;10206;48.012;10.030;2023-07-13T03:50:33;94896.59;;;21.43
31528;BMP280;10206;48.012;10.030;2023-07-13T03:53:00;94901.13;;;21.34
31528;BMP280;10206;48.012;10.030;2023-07-13T03:55:26;94908.66;;;21.32
31528;BMP280;10206;48.012;10.030;2023-07-13T03:58:01;94904.97;;;21.45
31528;BMP280;10206;48.012;10.030;2023-07-13T04:00:45;94909.47;;;21.34
31528;BMP280;10206;48.012;10.030;2023-07-13T04:03:11;94909.31;;;21.30
31528;BMP280;10206;48.012;10.030;2023-07-13T04:05:37;94902.91;;;21.26
31528;BMP280;10206;48.012;10.030;2023-07-13T04:08:06;94902.59;;;21.18
31528;BMP280;10206;48.012;10.030;2023-07-13T04:10:32;94909.47;;;21.34
31528;BMP280;10206;48.012;10.030;2023-07-13T04:12:58;94908.28;;;21.39
31528;BMP280;10206;48.012;10.030;2023-07-13T04:15:24;94909.63;;;21.38
31528;BMP280;10206;48.012;10.030;2023-07-13T04:17:50;94917.66;;;21.50
31528;BMP280;10206;48.012;10.030;2023-07-13T04:20:16;94923.19;;;21.50
31528;BMP280;10206;48.012;10.030;2023-07-13T04:22:43;94924.78;;;21.55
31528;BMP280;10206;48.012;10.030;2023-07-13T04:25:09;94919.13;;;21.53
31528;BMP280;10206;48.012;10.030;2023-07-13T04:27:35;94923.19;;;21.50
31528;BMP280;10206;48.012;10.030;2023-07-13T04:30:01;94927.41;;;21.51
31528;BMP280;10206;48.012;10.030;2023-07-13T04:32:27;94938.81;;;21.59
31528;BMP280;10206;48.012;10.030;2023-07-13T04:34:53;94937.88;;;21.53
31528;BMP280;10206;48.012;10.030;2023-07-13T04:37:21;94934.75;;;21.42
31528;BMP280;10206;48.012;10.030;2023-07-13T04:39:47;94937.59;;;21.64
31528;BMP280;10206;48.012;10.030;2023-07-13T04:42:13;94942.94;;;21.58
31528;BMP280;10206;48.012;10.030;2023-07-13T04:44:40;94944.69;;;21.69
31528;BMP280;10206;48.012;10.030;2023-07-13T04:47:06;94950.75;;;21.64
31528;BMP280;10206;48.012;10.030;2023-07-13T04:49:32;94948.47;;;21.38
31528;BMP280;10206;48.012;10.030;2023-07-13T04:51:58;94942.84;;;21.56
31528;BMP280;10206;48.012;10.030;2023-07-13T04:54:24;94935.53;;;21.45
31528;BMP280;10206;48.012;10.030;2023-07-13T04:56:50;94941.59;;;21.39
31528;BMP280;10206;48.012;10.030;2023-07-13T04:59:16;94950.00;;;21.43
31528;BMP280;10206;48.012;10.030;2023-07-13T05:01:42;94954.19;;;21.62
31528;BMP280;10206;48.012;10.030;2023-07-13T05:04:08;94952.72;;;21.59
31528;BMP280;10206;48.012;10.030;2023-07-13T05:06:35;94947.94;;;21.62
31528;BMP280;10206;48.012;10.030;2023-07-13T05:09:01;94952.47;;;21.73
31528;BMP280;10206;48.012;10.030;2023-07-13T05:11:27;94962.84;;;21.72
31528;BMP280;10206;48.012;10.030;2023-07-13T05:13:53;94963.16;;;21.80
31528;BMP280;10206;48.012;10.030;2023-07-13T05:16:19;94958.47;;;21.85
31528;BMP280;10206;48.012;10.030;2023-07-13T05:18:46;94956.38;;;21.85
31528;BMP280;10206;48.012;10.030;2023-07-13T05:21:12;94968.22;;;21.86
31528;BMP280;10206;48.012;10.030;2023-07-13T05:23:38;94968.19;;;22.05
31528;BMP280;10206;48.012;10.030;2023-07-13T05:26:04;94963.97;;;22.04
31528;BMP280;10206;48.012;10.030;2023-07-13T05:28:31;94964.78;;;22.07
31528;BMP280;10206;48.012;10.030;2023-07-13T05:30:57;94966.28;;;21.90
31528;BMP280;10206;48.012;10.030;2023-07-13T05:33:24;94963.94;;;21.83
31528;BMP280;10206;48.012;10.030;2023-07-13T05:35:51;94966.69;;;22.02
31528;BMP280;10206;48.012;10.030;2023-07-13T05:38:17;94965.75;;;22.15
31528;BMP280;10206;48.012;10.030;2023-07-13T05:40:44;94963.91;;;22.43
31528;BMP280;10206;48.012;10.030;2023-07-13T05:43:10;94962.47;;;22.64
31528;BMP280;10206;48.012;10.030;2023-07-13T05:45:37;94963.97;;;22.67
31528;BMP280;10206;48.012;10.030;2023-07-13T05:48:03;94969.75;;;22.75
31528;BMP280;10206;48.012;10.030;2023-07-13T05:50:29;94971.34;;;22.80
31528;BMP280;10206;48.012;10.030;2023-07-13T05:52:55;94988.41;;;22.71
31528;BMP280;10206;48.012;10.030;2023-07-13T05:55:22;94973.66;;;22.88
31528;BMP280;10206;48.012;10.030;2023-07-13T05:57:48;94986.91;;;22.89
31528;BMP280;10206;48.012;10.030;2023-07-13T06:00:15;94997.28;;;22.87
31528;BMP280;10206;48.012;10.030;2023-07-13T06:02:42;94989.97;;;22.76
31528;BMP280;10206;48.012;10.030;2023-07-13T06:05:08;94994.56;;;22.67
31528;BMP280;10206;48.012;10.030;2023-07-13T06:07:34;94990.28;;;22.64
31528;BMP280;10206;48.012;10.030;2023-07-13T06:10:01;94986.00;;;22.83
31528;BMP280;10206;48.012;10.030;2023-07-13T06:12:27;94988.53;;;22.96
31528;BMP280;10206;48.012;10.030;2023-07-13T06:14:53;94991.44;;;22.79
31528;BMP280;10206;48.012;10.030;2023-07-13T06:17:19;94992.22;;;23.03
31528;BMP280;10206;48.012;10.030;2023-07-13T06:19:45;95001.38;;;23.31
31528;BMP280;10206;48.012;10.030;2023-07-13T06:22:11;95000.81;;;23.58
31528;BMP280;10206;48.012;10.030;2023-07-13T06:24:37;94999.28;;;23.78
31528;BMP280;10206;48.012;10.030;2023-07-13T06:27:04;95002.63;;;23.26
31528;BMP280;10206;48.012;10.030;2023-07-13T06:29:30;95008.44;;;23.57
31528;BMP280;10206;48.012;10.030;2023-07-13T06:31:57;95008.44;;;23.57
31528;BMP280;10206;48.012;10.030;2023-07-13T06:34:23;95002.53;;;23.22
31528;BMP280;10206;48.012;10.030;2023-07-13T06:36:49;95018.09;;;23.07
31528;BMP280;10206;48.012;10.030;2023-07-13T06:39:15;95005.13;;;23.16
31528;BMP280;10206;48.012;10.030;2023-07-13T06:41:41;95010.69;;;23.16
31528;BMP280;10206;48.012;10.030;2023-07-13T06:44:08;95018.66;;;23.25
31528;BMP280;10206;48.012;10.030;2023-07-13T06:46:34;95027.03;;;23.04
31528;BMP280;10206;48.012;10.030;2023-07-13T06:49:00;95024.75;;;22.98
31528;BMP280;10206;48.012;10.030;2023-07-13T06:51:26;95030.31;;;23.20
31528;BMP280;10206;48.012;10.030;2023-07-13T06:53:52;95031.19;;;22.81
31528;BMP280;10206;48.012;10.030;2023-07-13T06:56:18;95030.75;;;23.12
31528;BMP280;10206;48.012;10.030;2023-07-13T06:58:45;95037.28;;;23.44
31528;BMP280;10206;48.012;10.030;2023-07-13T07:01:11;95035.34;;;23.49
31528;BMP280;10206;48.012;10.030;2023-07-13T07:03:37;95037.84;;;23.39
31528;BMP280;10206;48.012;10.030;2023-07-13T07:06:13;95041.63;;;23.26
31528;BMP280;10206;48.012;10.030;2023-07-13T07:08:40;95052.13;;;23.06
31528;BMP280;10206;48.012;10.030;2023-07-13T07:11:11;95052.53;;;22.75
31528;BMP280;10206;48.012;10.030;2023-07-13T07:13:38;95052.06;;;22.82
31528;BMP280;10206;48.012;10.030;2023-07-13T07:16:04;95047.63;;;22.32
31528;BMP280;10206;48.012;10.030;2023-07-13T07:18:30;95046.16;;;22.29
31528;BMP280;10206;48.012;10.030;2023-07-13T07:20:56;95051.41;;;22.62
31528;BMP280;10206;48.012;10.030;2023-07-13T07:23:22;95050.91;;;22.68
31528;BMP280;10206;48.012;10.030;2023-07-13T07:25:49;95049.22;;;22.80
31528;BMP280;10206;48.012;10.030;2023-07-13T07:28:16;95047.19;;;23.04
31528;BMP280;10206;48.012;10.030;2023-07-13T07:30:46;95043.53;;;23.43
31528;BMP280;10206;48.012;10.030;2023-07-13T07:33:12;95044.00;;;23.84
31528;BMP280;10206;48.012;10.030;2023-07-13T07:35:39;95051.25;;;24.19
31528;BMP280;10206;48.012;10.030;2023-07-13T07:38:05;95038.94;;;24.28
31528;BMP280;10206;48.012;10.030;2023-07-13T07:40:31;95038.28;;;24.57
31528;BMP280;10206;48.012;10.030;2023-07-13T07:42:58;95042.09;;;24.70
31528;BMP280;10206;48.012;10.030;2023-07-13T07:45:26;95044.56;;;24.58
31528;BMP280;10206;48.012;10.030;2023-07-13T07:47:52;95060.84;;;24.40
31528;BMP280;10206;48.012;10.030;2023-07-13T07:50:20;95064.94;;;24.37
31528;BMP280;10206;48.012;10.030;2023-07-13T07:52:46;95067.84;;;24.15
31528;BMP280;10206;48.012;10.030;2023-07-13T07:55:12;95066.72;;;24.24
31528;BMP280;10206;48.012;10.030;2023-07-13T07:57:38;95063.34;;;24.30
31528;BMP280;10206;48.012;10.030;2023-07-13T08:00:05;95066.72;;;23.99
31528;BMP280;10206;48.012;10.030;2023-07-13T08:02:31;95065.06;;;24.15
31528;BMP280;10206;48.012;10.030;2023-07-13T08:04:57;95063.19;;;23.98
31528;BMP280;10206;48.012;10.030;2023-07-13T08:07:23;95071.63;;;24.26
31528;BMP280;10206;48.012;10.030;2023-07-13T08:09:53;95074.81;;;24.67
31528;BMP280;10206;48.012;10.030;2023-07-13T08:12:19;95075.84;;;24.82
31528;BMP280;10206;48.012;10.030;2023-07-13T08:14:45;95077.81;;;25.05
31528;BMP280;10206;48.012;10.030;2023-07-13T08:17:15;95074.25;;;25.02
31528;BMP280;10206;48.012;10.030;2023-07-13T08:19:41;95066.00;;;25.08
31528;BMP280;10206;48.012;10.030;2023-07-13T08:22:07;95067.97;;;25.02
31528;BMP280;10206;48.012;10.030;2023-07-13T08:24:33;95079.22;;;25.69
31528;BMP280;10206;48.012;10.030;2023-07-13T08:26:59;95072.84;;;25.65
31528;BMP280;10206;48.012;10.030;2023-07-13T08:29:25;95079.19;;;26.03
31528;BMP280;10206;48.012;10.030;2023-07-13T08:31:51;95071.88;;;25.52
31528;BMP280;10206;48.012;10.030;2023-07-13T08:34:17;95065.66;;;25.56
31528;BMP280;10206;48.012;10.030;2023-07-13T08:36:43;95077.72;;;25.64
31528;BMP280;10206;48.012;10.030;2023-07-13T08:39:10;95075.47;;;25.57
31528;BMP280;10206;48.012;10.030;2023-07-13T08:41:36;95067.34;;;24.76
31528;BMP280;10206;48.012;10.030;2023-07-13T08:44:03;95073.38;;;24.39
31528;BMP280;10206;48.012;10.030;2023-07-13T08:46:37;95082.13;;;24.55
31528;BMP280;10206;48.012;10.030;2023-07-13T08:49:16;95087.88;;;24.08
31528;BMP280;10206;48.012;10.030;2023-07-13T08:54:37;95084.44;;;24.35
31528;BMP280;10206;48.012;10.030;2023-07-13T08:57:13;95074.50;;;24.55
31528;BMP280;10206;48.012;10.030;2023-07-13T08:59:40;95085.97;;;24.67
31528;BMP280;10206;48.012;10.030;2023-07-13T09:02:19;95081.50;;;24.56
31528;BMP280;10206;48.012;10.030;2023-07-13T09:10:23;95090.50;;;24.55
31528;BMP280;10206;48.012;10.030;2023-07-13T09:15:36;95087.66;;;24.00
31528;BMP280;10206;48.012;10.030;2023-07-13T09:21:32;95083.25;;;24.71
31528;BMP280;10206;48.012;10.030;2023-07-13T09:24:34;95083.25;;;24.71
31528;BMP280;10206;48.012;10.030;2023-07-13T09:27:15;95081.69;;;24.37
31528;BMP280;10206;48.012;10.030;2023-07-13T09:30:15;95088.88;;;24.18
31528;BMP280;10206;48.012;10.030;2023-07-13T09:32:33;95085.16;;;24.35
31528;BMP280;10206;48.012;10.030;2023-07-13T09:34:59;95086.84;;;24.21
31528;BMP280;10206;48.012;10.030;2023-07-13T09:37:31;95085.25;;;24.39
31528;BMP280;10206;48.012;10.030;2023-07-13T09:40:00;95087.59;;;24.23
31528;BMP280;10206;48.012;10.030;2023-07-13T09:42:30;95099.31;;;24.18
31528;BMP280;10206;48.012;10.030;2023-07-13T09:45:00;95099.84;;;24.38
31528;BMP280;10206;48.012;10.030;2023-07-13T09:47:30;95098.25;;;24.56
31528;BMP280;10206;48.012;10.030;2023-07-13T09:50:00;95101.50;;;23.98
31528;BMP280;10206;48.012;10.030;2023-07-13T09:52:39;95093.66;;;24.67
31528;BMP280;10206;48.012;10.030;2023-07-13T09:55:24;95097.44;;;24.79
31528;BMP280;10206;48.012;10.030;2023-07-13T09:57:51;95097.03;;;25.21
31528;BMP280;10206;48.012;10.030;2023-07-13T10:00:29;95098.84;;;24.53
31528;BMP280;10206;48.012;10.030;2023-07-13T10:03:00;95101.56;;;24.78
31528;BMP280;10206;48.012;10.030;2023-07-13T10:05:27;95108.94;;;24.93
31528;BMP280;10206;48.012;10.030;2023-07-13T10:07:56;95113.16;;;24.94
31528;BMP280;10206;48.012;10.030;2023-07-13T10:10:23;95108.09;;;24.59
31528;BMP280;10206;48.012;10.030;2023-07-13T10:12:50;95104.78;;;24.94
31528;BMP280;10206;48.012;10.030;2023-07-13T10:15:20;95109.75;;;25.59
31528;BMP280;10206;48.012;10.030;2023-07-13T10:17:47;95103.72;;;25.39
31528;BMP280;10206;48.012;10.030;2023-07-13T10:20:14;95107.78;;;25.66
31528;BMP280;10206;48.012;10.030;2023-07-13T10:25:25;95103.81;;;26.10
31528;BMP280;10206;48.012;10.030;2023-07-13T10:30:49;95111.44;;;26.08
31528;BMP280;10206;48.012;10.030;2023-07-13T10:33:15;95110.00;;;25.38
31528;BMP280;10206;48.012;10.030;2023-07-13T10:35:43;95100.88;;;25.37
31528;BMP280;10206;48.012;10.030;2023-07-13T10:38:15;95099.47;;;25.68
31528;BMP280;10206;48.012;10.030;2023-07-13T10:41:05;95096.00;;;26.40
31528;BMP280;10206;48.012;10.030;2023-07-13T10:43:36;95103.41;;;26.66
31528;BMP280;10206;48.012;10.030;2023-07-13T10:46:10;95106.28;;;26.70
31528;BMP280;10206;48.012;10.030;2023-07-13T10:48:37;95111.00;;;26.57
31528;BMP280;10206;48.012;10.030;2023-07-13T10:51:06;95115.63;;;26.07
31528;BMP280;10206;48.012;10.030;2023-07-13T10:53:34;95116.22;;;25.68
31528;BMP280;10206;48.012;10.030;2023-07-13T10:58:43;95110.69;;;26.41
31528;BMP280;10206;48.012;10.030;2023-07-13T11:01:15;95116.00;;;26.25
31528;BMP280;10206;48.012;10.030;2023-07-13T11:03:54;95116.06;;;26.29
31528;BMP280;10206;48.012;10.030;2023-07-13T11:08:57;95116.28;;;26.41
31528;BMP280;10206;48.012;10.030;2023-07-13T11:21:28;95119.09;;;28.40
31528;BMP280;10206;48.012;10.030;2023-07-13T11:24:15;95117.41;;;28.14
31528;BMP280;10206;48.012;10.030;2023-07-13T11:29:33;95126.50;;;27.53
31528;BMP280;10206;48.012;10.030;2023-07-13T11:32:22;95130.75;;;27.56
31528;BMP280;10206;48.012;10.030;2023-07-13T11:34:49;95111.97;;;27.69
31528;BMP280;10206;48.012;10.030;2023-07-13T11:37:17;95111.97;;;27.19
31528;BMP280;10206;48.012;10.030;2023-07-13T11:39:46;95115.53;;;27.22
31528;BMP280;10206;48.012;10.030;2023-07-13T11:42:16;95097.84;;;27.59
31528;BMP280;10206;48.012;10.030;2023-07-13T11:44:52;95112.69;;;27.71
31528;BMP280;10206;48.012;10.030;2023-07-13T11:47:21;95102.69;;;27.56
31528;BMP280;10206;48.012;10.030;2023-07-13T11:49:53;95099.16;;;27.54
31528;BMP280;10206;48.012;10.030;2023-07-13T11:52:36;95097.97;;;27.19
31528;BMP280;10206;48.012;10.030;2023-07-13T11:55:12;95103.94;;;27.43
31528;BMP280;10206;48.012;10.030;2023-07-13T11:57:44;95096.47;;;27.12
31528;BMP280;10206;48.012;10.030;2023-07-13T12:00:15;95085.78;;;27.50
31528;BMP280;10206;48.012;10.030;2023-07-13T12:02:52;95091.28;;;26.51
31528;BMP280;10206;48.012;10.030;2023-07-13T12:05:20;95095.91;;;26.76
31528;BMP280;10206;48.012;10.030;2023-07-13T12:07:47;95091.13;;;26.43
31528;BMP280;10206;48.012;10.030;2023-07-13T12:10:25;95090.22;;;27.67
31528;BMP280;10206;48.012;10.030;2023-07-13T12:12:57;95094.47;;;27.19
31528;BMP280;10206;48.012;10.030;2023-07-13T12:15:33;95093.59;;;28.14
31528;BMP280;10206;48.012;10.030;2023-07-13T12:18:00;95096.00;;;29.39
31528;BMP280;10206;48.012;10.030;2023-07-13T12:20:35;95095.44;;;29.70
31528;BMP280;10206;48.012;10.030;2023-07-13T12:23:05;95093.28;;;29.63
31528;BMP280;10206;48.012;10.030;2023-07-13T12:25:33;95083.88;;;29.10
31528;BMP280;10206;48.012;10.030;2023-07-13T12:27:59;95093.72;;;28.28
31528;BMP280;10206;48.012;10.030;2023-07-13T12:30:49;95080.47;;;29.28
31528;BMP280;10206;48.012;10.030;2023-07-13T12:33:17;95073.50;;;29.43
31528;BMP280;10206;48.012;10.030;2023-07-13T12:35:51;95080.56;;;29.52
31528;BMP280;10206;48.012;10.030;2023-07-13T12:38:18;95079.88;;;29.51
31528;BMP280;10206;48.012;10.030;2023-07-13T12:40:50;95056.75;;;29.75
31528;BMP280;10206;48.012;10.030;2023-07-13T12:43:17;95066.38;;;29.22
31528;BMP280;10206;48.012;10.030;2023-07-13T12:46:19;95047.75;;;27.93
31528;BMP280;10206;48.012;10.030;2023-07-13T12:48:50;95055.56;;;28.82
31528;BMP280;10206;48.012;10.030;2023-07-13T12:51:20;95059.59;;;28.57
31528;BMP280;10206;48.012;10.030;2023-07-13T12:53:56;95066.06;;;28.76
31528;BMP280;10206;48.012;10.030;2023-07-13T12:56:24;95065.22;;;28.59
31528;BMP280;10206;48.012;10.030;2023-07-13T12:59:03;95067.63;;;28.99
31528;BMP280;10206;48.012;10.030;2023-07-13T13:01:34;95059.75;;;28.77
31528;BMP280;10206;48.012;10.030;2023-07-13T13:04:02;95042.78;;;28.61
31528;BMP280;10206;48.012;10.030;2023-07-13T13:06:33;95045.16;;;28.15
31528;BMP280;10206;48.012;10.030;2023-07-13T13:09:01;95059.00;;;28.73
31528;BMP280;10206;48.012;10.030;2023-07-13T13:11:29;95050.50;;;28.61
31528;BMP280;10206;48.012;10.030;2023-07-13T13:13:56;95057.81;;;29.06
31528;BMP280;10206;48.012;10.030;2023-07-13T13:16:26;95054.03;;;27.89
31528;BMP280;10206;48.012;10.030;2023-07-13T13:18:56;95049.72;;;28.56
31528;BMP280;10206;48.012;10.030;2023-07-13T13:21:26;95052.00;;;28.76
31528;BMP280;10206;48.012;10.030;2023-07-13T13:23:53;95046.47;;;28.82
31528;BMP280;10206;48.012;10.030;2023-07-13T13:26:21;95049.25;;;28.86
31528;BMP280;10206;48.012;10.030;2023-07-13T13:28:47;95047.53;;;28.41
31528;BMP280;10206;48.012;10.030;2023-07-13T13:31:14;95041.84;;;28.33
31528;BMP280;10206;48.012;10.030;2023-07-13T13:33:45;95047.53;;;28.41
31528;BMP280;10206;48.012;10.030;2023-07-13T13:36:20;95048.44;;;27.91
31528;BMP280;10206;48.012;10.030;2023-07-13T13:38:49;95042.78;;;27.87
31528;BMP280;10206;48.012;10.030;2023-07-13T13:41:16;95039.25;;;27.85
31528;BMP280;10206;48.012;10.030;2023-07-13T13:43:43;95046.66;;;27.60
31528;BMP280;10206;48.012;10.030;2023-07-13T13:46:15;95043.94;;;28.32
31528;BMP280;10206;48.012;10.030;2023-07-13T13:48:42;95039.72;;;28.31
31528;BMP280;10206;48.012;10.030;2023-07-13T13:53:43;95033.66;;;28.65
31528;BMP280;10206;48.012;10.030;2023-07-13T13:56:09;95037.09;;;28.49
31528;BMP280;10206;48.012;10.030;2023-07-13T13:58:35;95030.59;;;28.33
31528;BMP280;10206;48.012;10.030;2023-07-13T14:01:02;95040.06;;;27.95
31528;BMP280;10206;48.012;10.030;2023-07-13T14:03:28;95032.41;;;28.02
31528;BMP280;10206;48.012;10.030;2023-07-13T14:05:55;95036.13;;;28.21
31528;BMP280;10206;48.012;10.030;2023-07-13T14:08:23;95033.34;;;28.23
31528;BMP280;10206;48.012;10.030;2023-07-13T14:10:52;95029.75;;;28.18
31528;BMP280;10206;48.012;10.030;2023-07-13T14:13:27;95031.84;;;28.14
31528;BMP280;10206;48.012;10.030;2023-07-13T14:15:54;95040.44;;;27.12
31528;BMP280;10206;48.012;10.030;2023-07-13T14:18:20;95028.94;;;28.03
31528;BMP280;10206;48.012;10.030;2023-07-13T14:20:48;95031.44;;;27.75
31528;BMP280;10206;48.012;10.030;2023-07-13T14:23:15;95021.81;;;27.92
31528;BMP280;10206;48.012;10.030;2023-07-13T14:25:42;95033.00;;;27.90
31528;BMP280;10206;48.012;10.030;2023-07-13T14:28:26;95031.84;;;28.14
31528;BMP280;10206;48.012;10.030;2023-07-13T14:30:53;95033.59;;;27.79
31528;BMP280;10206;48.012;10.030;2023-07-13T14:33:20;95029.91;;;27.66
31528;BMP280;10206;48.012;10.030;2023-07-13T14:35:46;95023.25;;;27.34
31528;BMP280;10206;48.012;10.030;2023-07-13T14:38:17;95031.28;;;27.10
31528;BMP280;10206;48.012;10.030;2023-07-13T14:40:43;95033.44;;;27.11
31528;BMP280;10206;48.012;10.030;2023-07-13T14:43:16;95032.69;;;27.09
31528;BMP280;10206;48.012;10.030;2023-07-13T14:45:49;95031.97;;;27.06